Megah Delapan — VRGA4 — position and weather

sailwx.info

Track history (hours):
 
Tides and Currents Weather Stations Pressure Air Temp Water Temp Dewpoint Dewpoint Depression Visibility Wind Speed Wind Dir Waves Ship Positions

Megah Delapan

Last reported at 2014-Oct-18 04:27 UTC. Time now 2014-Oct-24 23:55 UTC.
Position N 30°45' E 122°60'.

Length 120 m; draft 9 m.

Type: Cargo ship. MMSI: 477639100.

Date/timePositionNaut miles runAvg speedWind from/ knotsBaromVisibWave heightAir tempDewpointWater temp
2014-Oct-18 04:27N 30°45' E 122°60'1412.3
2014-Oct-18 03:20N 30°57' E 122°53'5110.5
2014-Oct-17 22:31N 31°15' E 121°58'1010.9
2014-Oct-17 21:33N 31°18' E 121°46'1010.4
2014-Oct-17 20:33N 31°23' E 121°35'1010.4
2014-Oct-17 19:33N 31°29' E 121°26'10 9.6
2014-Oct-17 18:33N 31°36' E 121°17'1413.7
2014-Oct-17 17:33N 31°45' E 121°05'1211.8
2014-Oct-17 16:33N 31°51' E 120°54'1211.7
2014-Oct-17 15:34N 32°01' E 120°45'1212.4
2014-Oct-17 14:33N 32°02' E 120°31'8 8.4
2014-Oct-17 13:33N 31°58' E 120°22'1110.9
2014-Oct-17 12:33N 31°56' E 120°09'1312.4
2014-Oct-17 11:33N 32°02' E 119°57'1313.3
2014-Oct-17 10:33N 32°15' E 119°52'5 0.2
2014-Oct-16 14:03N 32°19' E 119°49'0 0.0
2014-Oct-16 01:09N 32°19' E 119°49'3 5.2
2014-Oct-16 00:32N 32°16' E 119°52'6 6.2
2014-Oct-15 23:33N 32°11' E 119°54'0 0.0
2014-Oct-15 22:30N 32°11' E 119°54'0 0.0
2014-Oct-15 21:33N 32°11' E 119°54'0 0.0
2014-Oct-15 20:33N 32°11' E 119°54'0 0.0
2014-Oct-15 19:27N 32°11' E 119°54'0 0.0
2014-Oct-15 18:30N 32°11' E 119°54'0 0.0
2014-Oct-15 17:27N 32°11' E 119°54'0 0.1
2014-Oct-15 16:33N 32°11' E 119°54'1010.5
2014-Oct-15 15:34N 32°01' E 119°58'1110.8
2014-Oct-15 14:33N 31°56' E 120°09'1010.4
2014-Oct-15 13:34N 31°59' E 120°21'1010.2
2014-Oct-15 12:34N 32°04' E 120°32'10 9.8
2014-Oct-15 11:34N 32°00' E 120°43'1111.0
2014-Oct-15 10:34N 31°54' E 120°53'10 9.8
2014-Oct-15 09:33N 31°47' E 121°01'1513.4
2014-Oct-15 08:28N 31°38' E 121°15'1212.8
2014-Oct-15 07:33N 31°30' E 121°25'9 9.4
2014-Oct-15 06:33N 31°24' E 121°33'9 9.4
2014-Oct-15 05:33N 31°19' E 121°42'3611.2
2014-Oct-15 02:22N 31°02' E 122°20'23 2.0
2014-Oct-14 15:09N 31°01' E 122°46'28510.2
2014-Oct-13 11:05N 35°04' E 119°48'611.2
2014-Oct-13 10:32N 35°04' E 119°40'5 0.8
2014-Oct-13 04:08N 35°02' E 119°35'0 0.4
2014-Oct-13 03:29N 35°01' E 119°35'0 0.0
2014-Oct-13 02:29N 35°01' E 119°35'0 0.0
2014-Oct-13 01:11N 35°01' E 119°35'0 0.1
2014-Oct-13 00:23N 35°01' E 119°34'0 0.1
2014-Oct-12 23:05N 35°02' E 119°34'0 0.5
2014-Oct-12 22:29N 35°02' E 119°35'1 0.6
2014-Oct-12 21:30N 35°01' E 119°34'0 0.3
2014-Oct-12 20:13N 35°02' E 119°35'0 0.1
2014-Oct-12 19:31N 35°02' E 119°35'0 0.0
2014-Oct-12 18:31N 35°02' E 119°35'0 0.0
2014-Oct-12 17:24N 35°02' E 119°35'0 0.0
2014-Oct-12 16:19N 35°02' E 119°35'0 0.0
2014-Oct-12 15:25N 35°02' E 119°35'0 0.0
2014-Oct-12 14:13N 35°02' E 119°35'0 0.0
2014-Oct-12 13:19N 35°02' E 119°35'0 0.0
2014-Oct-12 11:07N 35°02' E 119°35'0 0.0
2014-Oct-12 10:13N 35°02' E 119°35'0 0.1
2014-Oct-12 09:31N 35°02' E 119°35'0 0.0
2014-Oct-12 07:31N 35°02' E 119°35'0 0.0
2014-Oct-12 04:31N 35°02' E 119°35'0 0.0
2014-Oct-12 03:19N 35°02' E 119°35'0 0.0
2014-Oct-12 02:19N 35°02' E 119°35'0 0.0
2014-Oct-11 23:25N 35°02' E 119°35'0 0.0
2014-Oct-11 22:31N 35°02' E 119°35'0 0.0
2014-Oct-11 21:25N 35°02' E 119°35'0 0.0
2014-Oct-11 20:24N 35°02' E 119°35'0 0.0
2014-Oct-11 19:12N 35°02' E 119°35'0 0.1
2014-Oct-11 18:30N 35°02' E 119°35'0 0.0
2014-Oct-11 17:30N 35°02' E 119°35'0 0.0
2014-Oct-11 16:25N 35°02' E 119°35'0 0.0
2014-Oct-11 15:24N 35°02' E 119°35'0 0.1
2014-Oct-11 14:30N 35°02' E 119°35'0 0.0
2014-Oct-11 12:06N 35°02' E 119°35'0 0.1
2014-Oct-11 11:18N 35°02' E 119°35'7 8.2
2014-Oct-11 10:30N 35°02' E 119°27'5 4.8
2014-Oct-11 09:29N 35°06' E 119°22'0 0.0
2014-Oct-11 08:29N 35°06' E 119°22'0 0.0
2014-Oct-11 07:28N 35°06' E 119°22'0 0.0
2014-Oct-11 06:10N 35°06' E 119°22'0 0.0
2014-Oct-11 05:28N 35°06' E 119°22'0 0.0
2014-Oct-11 04:28N 35°06' E 119°22'0 0.0
2014-Oct-11 03:22N 35°06' E 119°22'0 0.0
2014-Oct-11 02:16N 35°06' E 119°22'0 0.0
2014-Oct-11 01:28N 35°06' E 119°22'0 0.0
2014-Oct-11 00:10N 35°06' E 119°22'0 0.0
2014-Oct-10 23:28N 35°06' E 119°22'0 0.0
2014-Oct-10 22:22N 35°06' E 119°22'0 0.0
2014-Oct-10 21:28N 35°06' E 119°22'0 0.0
2014-Oct-10 20:28N 35°06' E 119°22'0 0.0
2014-Oct-10 19:28N 35°06' E 119°22'0 0.0
2014-Oct-10 18:10N 35°06' E 119°22'0 0.0
2014-Oct-10 17:04N 35°06' E 119°22'0 0.0
2014-Oct-10 16:22N 35°06' E 119°22'0 0.0
2014-Oct-10 15:28N 35°06' E 119°22'0 0.0
2014-Oct-10 14:28N 35°06' E 119°22'0 0.0
2014-Oct-10 13:22N 35°06' E 119°22'0 0.0
2014-Oct-10 12:16N 35°06' E 119°22'0 0.0
2014-Oct-10 10:28N 35°06' E 119°22'0 0.0
2014-Oct-10 09:22N 35°06' E 119°22'0 0.0
2014-Oct-10 08:28N 35°06' E 119°22'0 0.0
2014-Oct-10 07:05N 35°06' E 119°22'0 0.0
2014-Oct-10 06:29N 35°06' E 119°22'0 0.0
2014-Oct-10 05:29N 35°06' E 119°22'0 0.0
2014-Oct-10 04:29N 35°06' E 119°22'0 0.0
2014-Oct-10 03:33N 35°06' E 119°22'7 7.2
2014-Oct-10 02:33N 35°02' E 119°30'3 3.1
2014-Oct-10 01:32N 35°02' E 119°34'0 0.1
2014-Oct-09 23:26N 35°02' E 119°34'0 0.0
2014-Oct-09 22:26N 35°02' E 119°34'0 0.0
2014-Oct-09 21:26N 35°02' E 119°34'0 0.0
2014-Oct-09 20:20N 35°02' E 119°34'0 0.0
2014-Oct-09 19:26N 35°02' E 119°34'0 0.0
2014-Oct-09 18:32N 35°02' E 119°34'0 0.0
2014-Oct-09 17:26N 35°02' E 119°34'0 0.1
2014-Oct-09 16:32N 35°02' E 119°34'0 0.0
2014-Oct-09 14:26N 35°02' E 119°34'0 0.0
2014-Oct-09 10:14N 35°02' E 119°34'0 0.0
2014-Oct-09 09:26N 35°02' E 119°34'0 0.0
2014-Oct-09 06:26N 35°02' E 119°34'0 0.0
2014-Oct-09 01:32N 35°02' E 119°34'0 0.0
2014-Oct-09 00:20N 35°02' E 119°34'0 0.0
2014-Oct-08 23:26N 35°02' E 119°34'0 0.1
2014-Oct-08 21:26N 35°02' E 119°34'0 0.0
2014-Oct-08 20:20N 35°02' E 119°34'0 0.1
2014-Oct-08 19:14N 35°02' E 119°34'0 0.1
2014-Oct-08 18:32N 35°02' E 119°34'0 0.1
2014-Oct-08 17:26N 35°02' E 119°34'0 0.0
2014-Oct-08 16:26N 35°02' E 119°34'0 0.1
2014-Oct-08 15:09N 35°02' E 119°34'4 6.5
2014-Oct-08 14:33N 35°01' E 119°38'1111.0
2014-Oct-08 13:33N 35°02' E 119°52'  
Track history (hours):
 
Tides and Currents Weather Stations Pressure Air Temp Water Temp Dewpoint Dewpoint Depression Visibility Wind Speed Wind Dir Waves Ship Positions

Megah Delapan

Last reported at 2014-Oct-18 04:27 UTC. Time now 2014-Oct-24 23:55 UTC.
Position N 30°45' E 122°60'.

Length 120 m; draft 9 m.

Type: Cargo ship. MMSI: 477639100.

Date/timePositionNaut miles runAvg speedWind from/ knotsBaromVisibWave heightAir tempDewpointWater temp
2014-Oct-18 04:27N 30°45' E 122°60'1412.3
2014-Oct-18 03:20N 30°57' E 122°53'5110.5
2014-Oct-17 22:31N 31°15' E 121°58'1010.9
2014-Oct-17 21:33N 31°18' E 121°46'1010.4
2014-Oct-17 20:33N 31°23' E 121°35'1010.4
2014-Oct-17 19:33N 31°29' E 121°26'10 9.6
2014-Oct-17 18:33N 31°36' E 121°17'1413.7
2014-Oct-17 17:33N 31°45' E 121°05'1211.8
2014-Oct-17 16:33N 31°51' E 120°54'1211.7
2014-Oct-17 15:34N 32°01' E 120°45'1212.4
2014-Oct-17 14:33N 32°02' E 120°31'8 8.4
2014-Oct-17 13:33N 31°58' E 120°22'1110.9
2014-Oct-17 12:33N 31°56' E 120°09'1312.4
2014-Oct-17 11:33N 32°02' E 119°57'1313.3
2014-Oct-17 10:33N 32°15' E 119°52'5 0.2
2014-Oct-16 14:03N 32°19' E 119°49'0 0.0
2014-Oct-16 01:09N 32°19' E 119°49'3 5.2
2014-Oct-16 00:32N 32°16' E 119°52'6 6.2
2014-Oct-15 23:33N 32°11' E 119°54'0 0.0
2014-Oct-15 22:30N 32°11' E 119°54'0 0.0
2014-Oct-15 21:33N 32°11' E 119°54'0 0.0
2014-Oct-15 20:33N 32°11' E 119°54'0 0.0
2014-Oct-15 19:27N 32°11' E 119°54'0 0.0
2014-Oct-15 18:30N 32°11' E 119°54'0 0.0
2014-Oct-15 17:27N 32°11' E 119°54'0 0.1
2014-Oct-15 16:33N 32°11' E 119°54'1010.5
2014-Oct-15 15:34N 32°01' E 119°58'1110.8
2014-Oct-15 14:33N 31°56' E 120°09'1010.4
2014-Oct-15 13:34N 31°59' E 120°21'1010.2
2014-Oct-15 12:34N 32°04' E 120°32'10 9.8
2014-Oct-15 11:34N 32°00' E 120°43'1111.0
2014-Oct-15 10:34N 31°54' E 120°53'10 9.8
2014-Oct-15 09:33N 31°47' E 121°01'1513.4
2014-Oct-15 08:28N 31°38' E 121°15'1212.8
2014-Oct-15 07:33N 31°30' E 121°25'9 9.4
2014-Oct-15 06:33N 31°24' E 121°33'9 9.4
2014-Oct-15 05:33N 31°19' E 121°42'3611.2
2014-Oct-15 02:22N 31°02' E 122°20'23 2.0
2014-Oct-14 15:09N 31°01' E 122°46'28510.2
2014-Oct-13 11:05N 35°04' E 119°48'611.2
2014-Oct-13 10:32N 35°04' E 119°40'5 0.8
2014-Oct-13 04:08N 35°02' E 119°35'0 0.4
2014-Oct-13 03:29N 35°01' E 119°35'0 0.0
2014-Oct-13 02:29N 35°01' E 119°35'0 0.0
2014-Oct-13 01:11N 35°01' E 119°35'0 0.1
2014-Oct-13 00:23N 35°01' E 119°34'0 0.1
2014-Oct-12 23:05N 35°02' E 119°34'0 0.5
2014-Oct-12 22:29N 35°02' E 119°35'1 0.6
2014-Oct-12 21:30N 35°01' E 119°34'0 0.3
2014-Oct-12 20:13N 35°02' E 119°35'0 0.1
2014-Oct-12 19:31N 35°02' E 119°35'0 0.0
2014-Oct-12 18:31N 35°02' E 119°35'0 0.0
2014-Oct-12 17:24N 35°02' E 119°35'0 0.0
2014-Oct-12 16:19N 35°02' E 119°35'0 0.0
2014-Oct-12 15:25N 35°02' E 119°35'0 0.0
2014-Oct-12 14:13N 35°02' E 119°35'0 0.0
2014-Oct-12 13:19N 35°02' E 119°35'0 0.0
2014-Oct-12 11:07N 35°02' E 119°35'0 0.0
2014-Oct-12 10:13N 35°02' E 119°35'0 0.1
2014-Oct-12 09:31N 35°02' E 119°35'0 0.0
2014-Oct-12 07:31N 35°02' E 119°35'0 0.0
2014-Oct-12 04:31N 35°02' E 119°35'0 0.0
2014-Oct-12 03:19N 35°02' E 119°35'0 0.0
2014-Oct-12 02:19N 35°02' E 119°35'0 0.0
2014-Oct-11 23:25N 35°02' E 119°35'0 0.0
2014-Oct-11 22:31N 35°02' E 119°35'0 0.0
2014-Oct-11 21:25N 35°02' E 119°35'0 0.0
2014-Oct-11 20:24N 35°02' E 119°35'0 0.0
2014-Oct-11 19:12N 35°02' E 119°35'0 0.1
2014-Oct-11 18:30N 35°02' E 119°35'0 0.0
2014-Oct-11 17:30N 35°02' E 119°35'0 0.0
2014-Oct-11 16:25N 35°02' E 119°35'0 0.0
2014-Oct-11 15:24N 35°02' E 119°35'0 0.1
2014-Oct-11 14:30N 35°02' E 119°35'0 0.0
2014-Oct-11 12:06N 35°02' E 119°35'0 0.1
2014-Oct-11 11:18N 35°02' E 119°35'7 8.2
2014-Oct-11 10:30N 35°02' E 119°27'5 4.8
2014-Oct-11 09:29N 35°06' E 119°22'0 0.0
2014-Oct-11 08:29N 35°06' E 119°22'0 0.0
2014-Oct-11 07:28N 35°06' E 119°22'0 0.0
2014-Oct-11 06:10N 35°06' E 119°22'0 0.0
2014-Oct-11 05:28N 35°06' E 119°22'0 0.0
2014-Oct-11 04:28N 35°06' E 119°22'0 0.0
2014-Oct-11 03:22N 35°06' E 119°22'0 0.0
2014-Oct-11 02:16N 35°06' E 119°22'0 0.0
2014-Oct-11 01:28N 35°06' E 119°22'0 0.0
2014-Oct-11 00:10N 35°06' E 119°22'0 0.0
2014-Oct-10 23:28N 35°06' E 119°22'0 0.0
2014-Oct-10 22:22N 35°06' E 119°22'0 0.0
2014-Oct-10 21:28N 35°06' E 119°22'0 0.0
2014-Oct-10 20:28N 35°06' E 119°22'0 0.0
2014-Oct-10 19:28N 35°06' E 119°22'0 0.0
2014-Oct-10 18:10N 35°06' E 119°22'0 0.0
2014-Oct-10 17:04N 35°06' E 119°22'0 0.0
2014-Oct-10 16:22N 35°06' E 119°22'0 0.0
2014-Oct-10 15:28N 35°06' E 119°22'0 0.0
2014-Oct-10 14:28N 35°06' E 119°22'0 0.0
2014-Oct-10 13:22N 35°06' E 119°22'0 0.0
2014-Oct-10 12:16N 35°06' E 119°22'0 0.0
2014-Oct-10 10:28N 35°06' E 119°22'0 0.0
2014-Oct-10 09:22N 35°06' E 119°22'0 0.0
2014-Oct-10 08:28N 35°06' E 119°22'0 0.0
2014-Oct-10 07:05N 35°06' E 119°22'0 0.0
2014-Oct-10 06:29N 35°06' E 119°22'0 0.0
2014-Oct-10 05:29N 35°06' E 119°22'0 0.0
2014-Oct-10 04:29N 35°06' E 119°22'0 0.0
2014-Oct-10 03:33N 35°06' E 119°22'7 7.2
2014-Oct-10 02:33N 35°02' E 119°30'3 3.1
2014-Oct-10 01:32N 35°02' E 119°34'0 0.1
2014-Oct-09 23:26N 35°02' E 119°34'0 0.0
2014-Oct-09 22:26N 35°02' E 119°34'0 0.0
2014-Oct-09 21:26N 35°02' E 119°34'0 0.0
2014-Oct-09 20:20N 35°02' E 119°34'0 0.0
2014-Oct-09 19:26N 35°02' E 119°34'0 0.0
2014-Oct-09 18:32N 35°02' E 119°34'0 0.0
2014-Oct-09 17:26N 35°02' E 119°34'0 0.1
2014-Oct-09 16:32N 35°02' E 119°34'0 0.0
2014-Oct-09 14:26N 35°02' E 119°34'0 0.0
2014-Oct-09 10:14N 35°02' E 119°34'0 0.0
2014-Oct-09 09:26N 35°02' E 119°34'0 0.0
2014-Oct-09 06:26N 35°02' E 119°34'0 0.0
2014-Oct-09 01:32N 35°02' E 119°34'0 0.0
2014-Oct-09 00:20N 35°02' E 119°34'0 0.0
2014-Oct-08 23:26N 35°02' E 119°34'0 0.1
2014-Oct-08 21:26N 35°02' E 119°34'0 0.0
2014-Oct-08 20:20N 35°02' E 119°34'0 0.1
2014-Oct-08 19:14N 35°02' E 119°34'0 0.1
2014-Oct-08 18:32N 35°02' E 119°34'0 0.1
2014-Oct-08 17:26N 35°02' E 119°34'0 0.0
2014-Oct-08 16:26N 35°02' E 119°34'0 0.1
2014-Oct-08 15:09N 35°02' E 119°34'4 6.5
2014-Oct-08 14:33N 35°01' E 119°38'1111.0
2014-Oct-08 13:33N 35°02' E 119°52'  

Dump ship's entire track history